createdAt,value
2023-04-18T00:00:27.266Z,17.77
2023-04-18T00:02:55.078Z,17.74
2023-04-18T00:05:22.118Z,17.79
2023-04-18T00:07:48.786Z,17.80
2023-04-18T00:10:15.543Z,17.78
2023-04-18T00:12:42.939Z,17.77
2023-04-18T00:15:10.048Z,17.78
2023-04-18T00:17:38.527Z,17.78
2023-04-18T00:20:07.929Z,17.76
2023-04-18T00:22:34.371Z,17.78
2023-04-18T00:25:00.835Z,17.75
2023-04-18T00:27:27.369Z,17.76
2023-04-18T00:29:53.845Z,17.78
2023-04-18T00:32:20.327Z,17.76
2023-04-18T00:34:46.762Z,17.80
2023-04-18T00:37:13.219Z,17.80
2023-04-18T00:39:39.727Z,17.76
2023-04-18T00:42:06.463Z,17.74
2023-04-18T00:44:33.013Z,17.74
2023-04-18T00:46:59.441Z,17.70
2023-04-18T00:49:27.221Z,17.68
2023-04-18T00:51:55.925Z,17.69
2023-04-18T00:54:24.089Z,17.71
2023-04-18T00:56:50.675Z,17.68
2023-04-18T00:59:17.236Z,17.69
2023-04-18T01:01:45.159Z,17.68
2023-04-18T01:04:11.979Z,17.68
2023-04-18T01:06:39.194Z,17.68
2023-04-18T01:09:05.693Z,17.70
2023-04-18T01:11:32.401Z,17.63
2023-04-18T01:14:03.754Z,17.66
2023-04-18T01:16:32.881Z,17.67
2023-04-18T01:19:00.170Z,17.68
2023-04-18T01:21:26.918Z,17.69
2023-04-18T01:23:53.838Z,17.69
2023-04-18T01:26:20.317Z,17.72
2023-04-18T01:28:46.775Z,17.63
2023-04-18T01:31:13.246Z,17.65
2023-04-18T01:33:39.707Z,17.63
2023-04-18T01:36:06.313Z,17.57
2023-04-18T01:38:33.155Z,17.64
2023-04-18T01:40:59.593Z,17.63
2023-04-18T01:43:26.046Z,17.62
2023-04-18T01:45:52.496Z,17.64
2023-04-18T01:48:18.948Z,17.62
2023-04-18T01:50:45.474Z,17.59
2023-04-18T01:53:11.959Z,17.60
2023-04-18T01:55:38.388Z,17.58
2023-04-18T01:58:04.833Z,17.59
2023-04-18T02:00:31.329Z,17.58
2023-04-18T02:03:00.750Z,17.56
2023-04-18T02:05:27.406Z,17.57
2023-04-18T02:07:53.815Z,17.53
2023-04-18T02:10:21.180Z,17.55
2023-04-18T02:12:47.619Z,17.57
2023-04-18T02:15:14.182Z,17.52
2023-04-18T02:17:41.577Z,17.52
2023-04-18T02:20:09.227Z,17.53
2023-04-18T02:22:37.735Z,17.59
2023-04-18T02:25:04.397Z,17.56
2023-04-18T02:27:30.849Z,17.52
2023-04-18T02:29:57.310Z,17.51
2023-04-18T02:32:23.759Z,17.52
2023-04-18T02:34:50.277Z,17.49
2023-04-18T02:37:16.702Z,17.48
2023-04-18T02:39:43.137Z,17.52
2023-04-18T02:42:09.574Z,17.53
2023-04-18T02:44:35.987Z,17.50
2023-04-18T02:47:02.459Z,17.52
2023-04-18T02:49:28.881Z,17.53
2023-04-18T02:51:58.199Z,17.46
2023-04-18T02:54:24.905Z,17.44
2023-04-18T02:56:55.330Z,17.44
2023-04-18T02:59:21.773Z,17.48
2023-04-18T03:01:48.377Z,17.43
2023-04-18T03:04:14.994Z,17.44
2023-04-18T03:06:41.759Z,17.41
2023-04-18T03:09:08.328Z,17.45
2023-04-18T03:11:34.790Z,17.46
2023-04-18T03:14:01.232Z,17.40
2023-04-18T03:16:27.812Z,17.39
2023-04-18T03:18:54.226Z,17.38
2023-04-18T03:21:20.768Z,17.42
2023-04-18T03:23:47.297Z,17.38
2023-04-18T03:26:13.996Z,17.36
2023-04-18T03:28:40.840Z,17.38
2023-04-18T03:31:07.348Z,17.43
2023-04-18T03:33:33.843Z,17.42
2023-04-18T03:36:00.285Z,17.43
2023-04-18T03:38:26.744Z,17.39
2023-04-18T03:40:53.904Z,17.36
2023-04-18T03:43:21.105Z,17.39
2023-04-18T03:45:47.837Z,17.39
2023-04-18T03:48:14.686Z,17.39
2023-04-18T03:50:41.336Z,17.40
2023-04-18T03:53:07.815Z,17.36
2023-04-18T03:55:34.342Z,17.32
2023-04-18T03:58:01.082Z,17.35
2023-04-18T04:00:27.523Z,17.37
2023-04-18T04:02:54.210Z,17.37
2023-04-18T04:05:20.899Z,17.40
2023-04-18T04:07:47.348Z,17.32
2023-04-18T04:10:13.836Z,17.37
2023-04-18T04:12:40.539Z,17.35
2023-04-18T04:15:07.327Z,17.34
2023-04-18T04:17:33.773Z,17.34
2023-04-18T04:20:00.265Z,17.34
2023-04-18T04:22:27.317Z,17.36
2023-04-18T04:24:53.764Z,17.34
2023-04-18T04:27:20.543Z,17.36
2023-04-18T04:29:47.356Z,17.31
2023-04-18T04:32:13.845Z,17.28
2023-04-18T04:34:41.489Z,17.30
2023-04-18T04:37:08.269Z,17.36
2023-04-18T04:39:34.722Z,17.40
2023-04-18T04:42:04.480Z,17.41
2023-04-18T04:44:31.358Z,17.36
2023-04-18T04:46:57.857Z,17.38
2023-04-18T04:49:24.394Z,17.41
2023-04-18T04:51:50.926Z,17.43
2023-04-18T04:54:17.349Z,17.38
2023-04-18T04:56:43.821Z,17.38
2023-04-18T04:59:10.241Z,17.38
2023-04-18T05:01:36.851Z,17.37
2023-04-18T05:04:03.975Z,17.46
2023-04-18T05:06:31.190Z,17.40
2023-04-18T05:08:59.589Z,17.41
2023-04-18T05:11:26.290Z,17.40
2023-04-18T05:13:52.693Z,17.48
2023-04-18T05:16:19.209Z,17.47
2023-04-18T05:18:45.913Z,17.46
2023-04-18T05:21:12.344Z,17.45
2023-04-18T05:23:39.699Z,17.43
2023-04-18T05:26:06.775Z,17.45
2023-04-18T05:28:33.242Z,17.43
2023-04-18T05:31:02.440Z,17.43
2023-04-18T05:33:29.422Z,17.47
2023-04-18T05:35:56.423Z,17.48
2023-04-18T05:38:22.893Z,17.36
2023-04-18T05:40:51.186Z,17.41
2023-04-18T05:43:20.727Z,17.38
2023-04-18T05:45:47.483Z,17.37
2023-04-18T05:48:14.308Z,17.38
2023-04-18T05:50:40.778Z,17.39
2023-04-18T05:53:07.210Z,17.37
2023-04-18T05:55:34.438Z,17.35
2023-04-18T05:58:01.083Z,17.35
2023-04-18T06:00:28.218Z,17.34
2023-04-18T06:02:54.790Z,17.39
2023-04-18T06:05:21.535Z,17.32
2023-04-18T06:07:48.242Z,17.33
2023-04-18T06:10:15.786Z,17.30
2023-04-18T06:12:42.561Z,17.35
2023-04-18T06:15:09.919Z,17.37
2023-04-18T06:17:36.435Z,17.36
2023-04-18T06:20:04.816Z,17.40
2023-04-18T06:22:31.314Z,17.41
2023-04-18T06:24:57.822Z,17.40
2023-04-18T06:27:31.414Z,17.43
2023-04-18T06:29:58.573Z,17.35
2023-04-18T06:32:25.397Z,17.43
2023-04-18T06:34:53.037Z,17.42
2023-04-18T06:37:19.841Z,17.41
2023-04-18T06:39:46.496Z,17.37
2023-04-18T06:42:12.993Z,17.42
2023-04-18T06:44:39.591Z,17.45
2023-04-18T06:47:06.110Z,17.43
2023-04-18T06:49:32.512Z,17.41
2023-04-18T06:51:59.042Z,17.43
2023-04-18T06:54:28.208Z,17.42
2023-04-18T06:56:54.706Z,17.40
2023-04-18T06:59:21.651Z,17.42
2023-04-18T07:01:48.147Z,17.45
2023-04-18T07:04:14.854Z,17.46
2023-04-18T07:06:42.372Z,17.37
2023-04-18T07:09:08.807Z,17.44
2023-04-18T07:11:35.355Z,17.43
2023-04-18T07:14:01.824Z,17.41
2023-04-18T07:16:28.240Z,17.41
2023-04-18T07:18:54.655Z,17.43
2023-04-18T07:21:21.117Z,17.46
2023-04-18T07:23:47.532Z,17.47
2023-04-18T07:26:14.020Z,17.42
2023-04-18T07:28:40.563Z,17.40
2023-04-18T07:31:11.133Z,17.38
2023-04-18T07:33:38.775Z,17.41
2023-04-18T07:36:06.062Z,17.43
2023-04-18T07:38:34.740Z,17.46
2023-04-18T07:41:02.729Z,17.49
2023-04-18T07:43:29.371Z,17.48
2023-04-18T07:45:56.024Z,17.52
2023-04-18T07:48:22.754Z,17.55
2023-04-18T07:50:49.496Z,17.59
2023-04-18T07:53:16.255Z,17.61
2023-04-18T07:55:43.385Z,17.64
2023-04-18T07:58:10.188Z,17.64
2023-04-18T08:00:39.204Z,17.65
2023-04-18T08:03:07.620Z,17.67
2023-04-18T08:05:34.375Z,17.67
2023-04-18T08:08:00.928Z,17.62
2023-04-18T08:10:27.494Z,17.67
2023-04-18T08:12:54.024Z,17.69
2023-04-18T08:15:20.586Z,17.68
2023-04-18T08:17:49.127Z,17.71
2023-04-18T08:20:15.743Z,17.73
2023-04-18T08:22:57.780Z,17.73
2023-04-18T08:25:29.007Z,17.73
2023-04-18T08:27:55.935Z,17.72
2023-04-18T08:30:22.370Z,17.71
2023-04-18T08:32:49.591Z,17.73
2023-04-18T08:35:16.436Z,17.72
2023-04-18T08:37:43.461Z,17.73
2023-04-18T08:40:10.108Z,17.73
2023-04-18T08:42:38.382Z,17.76
2023-04-18T08:45:06.898Z,17.76
2023-04-18T08:47:35.226Z,17.76
2023-04-18T08:50:02.240Z,17.77
2023-04-18T08:52:30.797Z,17.76
2023-04-18T08:54:57.443Z,17.77
2023-04-18T08:57:26.858Z,17.78
2023-04-18T08:59:54.024Z,17.78
2023-04-18T09:02:24.056Z,17.78
2023-04-18T09:04:53.441Z,17.81
2023-04-18T09:07:28.460Z,17.80
2023-04-18T09:09:59.854Z,17.80
2023-04-18T09:12:28.098Z,17.81
2023-04-18T09:14:57.864Z,17.81
2023-04-18T09:17:31.758Z,17.83
2023-04-18T09:19:59.872Z,17.82
2023-04-18T09:22:26.455Z,17.81
2023-04-18T09:24:57.464Z,17.81
2023-04-18T09:27:24.480Z,17.83
2023-04-18T09:29:55.287Z,17.84
2023-04-18T09:32:29.262Z,17.86
2023-04-18T09:35:03.950Z,17.85
2023-04-18T09:37:30.982Z,17.87
2023-04-18T09:39:57.525Z,17.85
2023-04-18T09:42:25.057Z,17.86
2023-04-18T09:45:07.000Z,17.86
2023-04-18T09:47:35.247Z,17.86
2023-04-18T09:50:09.872Z,17.89
2023-04-18T09:52:38.119Z,17.89
2023-04-18T09:55:10.026Z,17.89
2023-04-18T09:57:40.937Z,17.89
2023-04-18T10:00:14.381Z,17.91
2023-04-18T10:02:48.591Z,17.90
2023-04-18T10:05:15.719Z,17.90
2023-04-18T10:07:44.509Z,17.91
2023-04-18T10:10:11.184Z,17.91
2023-04-18T10:12:38.520Z,17.92
2023-04-18T10:15:06.815Z,17.91
2023-04-18T10:18:04.357Z,17.94
2023-04-18T10:20:33.018Z,17.92
2023-04-18T10:23:00.585Z,17.93
2023-04-18T10:25:39.448Z,17.94
2023-04-18T10:28:07.194Z,17.94
2023-04-18T10:30:42.279Z,17.93
2023-04-18T10:33:31.161Z,17.89
2023-04-18T10:36:12.283Z,17.86
2023-04-18T10:38:46.315Z,17.83
2023-04-18T10:41:26.266Z,17.83
2023-04-18T10:44:18.026Z,17.84
2023-04-18T10:46:53.450Z,17.80
2023-04-18T10:49:26.865Z,17.84
2023-04-18T10:51:56.293Z,17.88
2023-04-18T10:54:32.266Z,17.91
2023-04-18T10:57:04.361Z,17.91
2023-04-18T10:59:32.471Z,17.91
2023-04-18T11:02:07.772Z,17.91
2023-04-18T11:04:34.424Z,17.90
2023-04-18T11:07:01.549Z,17.91
2023-04-18T11:09:28.020Z,17.90
2023-04-18T11:12:06.524Z,17.91
2023-04-18T11:14:46.555Z,17.90
2023-04-18T11:17:24.510Z,17.88
2023-04-18T11:19:59.171Z,17.83
2023-04-18T11:22:25.892Z,17.86
2023-04-18T11:24:53.024Z,17.86
2023-04-18T11:27:25.765Z,17.86
2023-04-18T11:29:57.503Z,17.85
2023-04-18T11:32:24.435Z,17.81
2023-04-18T11:34:54.727Z,17.80
2023-04-18T11:37:21.713Z,17.79
2023-04-18T11:39:48.192Z,17.81
2023-04-18T11:42:14.891Z,17.81
2023-04-18T11:44:46.219Z,17.84
2023-04-18T11:47:29.621Z,17.84
2023-04-18T11:50:03.934Z,17.84
2023-04-18T11:52:31.822Z,17.88
2023-04-18T11:55:13.051Z,17.88
2023-04-18T11:57:40.844Z,17.86
2023-04-18T12:00:09.080Z,17.84
2023-04-18T12:02:40.139Z,17.86
2023-04-18T12:05:07.186Z,17.86
2023-04-18T12:07:36.391Z,17.85
2023-04-18T12:10:05.009Z,17.84
2023-04-18T12:12:31.567Z,17.83
2023-04-18T12:15:09.165Z,17.83
2023-04-18T12:17:38.138Z,17.81
2023-04-18T12:20:06.528Z,17.82
2023-04-18T12:22:49.561Z,17.84
2023-04-18T12:25:29.067Z,17.86
2023-04-18T12:28:15.070Z,17.84
2023-04-18T12:30:42.258Z,17.81
2023-04-18T12:33:09.275Z,17.80
2023-04-18T12:35:36.123Z,17.79
2023-04-18T12:38:02.955Z,17.78
2023-04-18T12:40:30.269Z,17.78
2023-04-18T12:42:56.947Z,17.78
2023-04-18T12:45:24.066Z,17.75
2023-04-18T12:47:52.135Z,17.76
2023-04-18T12:50:23.793Z,17.76
2023-04-18T12:52:55.660Z,17.76
2023-04-18T12:55:22.838Z,17.75
2023-04-18T12:57:52.192Z,17.73
2023-04-18T13:00:18.694Z,17.74
2023-04-18T13:02:45.981Z,17.75
2023-04-18T13:05:14.863Z,17.76
2023-04-18T13:07:42.612Z,17.76
2023-04-18T13:10:11.848Z,17.76
2023-04-18T13:12:39.699Z,17.78
2023-04-18T13:15:07.349Z,17.80
2023-04-18T13:17:36.396Z,17.79
2023-04-18T13:20:07.310Z,17.80
2023-04-18T13:22:34.127Z,17.80
2023-04-18T13:25:00.569Z,17.81
2023-04-18T13:27:27.114Z,17.84
2023-04-18T13:29:53.621Z,17.81
2023-04-18T13:32:20.142Z,17.80
2023-04-18T13:34:47.737Z,17.81
2023-04-18T13:37:15.117Z,17.79
2023-04-18T13:39:41.924Z,17.78
2023-04-18T13:42:09.969Z,17.76
2023-04-18T13:44:37.460Z,17.78
2023-04-18T13:47:05.475Z,17.80
2023-04-18T13:49:32.976Z,17.81
2023-04-18T13:51:59.626Z,17.80
2023-04-18T13:54:30.941Z,17.81
2023-04-18T13:56:59.442Z,17.81
2023-04-18T13:59:26.480Z,17.80
2023-04-18T14:01:54.302Z,17.80
2023-04-18T14:04:22.120Z,17.81
2023-04-18T14:06:49.262Z,17.80
2023-04-18T14:09:16.691Z,17.80
2023-04-18T14:11:43.413Z,17.81
2023-04-18T14:14:09.974Z,17.80
2023-04-18T14:16:36.596Z,17.79
2023-04-18T14:19:03.085Z,17.80
2023-04-18T14:21:29.729Z,17.79
2023-04-18T14:23:56.319Z,17.77
2023-04-18T14:26:23.021Z,17.77
2023-04-18T14:28:49.515Z,17.78
2023-04-18T14:31:16.276Z,17.83
2023-04-18T14:33:43.189Z,17.88
2023-04-18T14:36:09.844Z,17.89
2023-04-18T14:38:36.668Z,17.92
2023-04-18T14:41:06.300Z,17.94
2023-04-18T14:43:32.786Z,17.95
2023-04-18T14:45:59.880Z,17.97
2023-04-18T14:48:27.046Z,18.01
2023-04-18T14:51:02.391Z,18.00
2023-04-18T14:53:28.876Z,18.01
2023-04-18T14:55:56.097Z,18.04
2023-04-18T14:58:22.574Z,18.04
2023-04-18T15:00:49.236Z,18.07
2023-04-18T15:03:16.444Z,18.07
2023-04-18T15:05:46.405Z,18.07
2023-04-18T15:08:14.545Z,18.07
2023-04-18T15:10:42.543Z,18.08
2023-04-18T15:13:09.818Z,18.09
2023-04-18T15:15:37.742Z,18.11
2023-04-18T15:18:04.528Z,18.11
2023-04-18T15:20:31.329Z,18.13
2023-04-18T15:22:59.047Z,18.15
2023-04-18T15:25:26.264Z,18.16
2023-04-18T15:27:53.090Z,18.18
2023-04-18T15:30:19.647Z,18.18
2023-04-18T15:32:46.169Z,18.16
2023-04-18T15:35:12.898Z,18.15
2023-04-18T15:37:39.416Z,18.16
2023-04-18T15:40:09.208Z,18.16
2023-04-18T15:42:35.925Z,18.17
2023-04-18T15:45:04.481Z,18.21
2023-04-18T15:47:33.680Z,18.23
2023-04-18T15:50:00.376Z,18.29
2023-04-18T15:52:26.830Z,18.28
2023-04-18T15:54:54.465Z,18.28
2023-04-18T15:57:21.814Z,18.30
2023-04-18T15:59:48.261Z,18.36
2023-04-18T16:02:15.023Z,18.38
2023-04-18T16:04:41.553Z,18.47
2023-04-18T16:07:08.843Z,18.40
2023-04-18T16:09:35.308Z,18.38
2023-04-18T16:12:03.281Z,18.37
2023-04-18T16:14:31.212Z,18.36
2023-04-18T16:16:58.710Z,18.36
2023-04-18T16:19:25.349Z,18.37
2023-04-18T16:21:51.997Z,18.36
2023-04-18T16:24:18.781Z,18.36
2023-04-18T16:26:45.294Z,18.38
2023-04-18T16:29:11.713Z,18.40
2023-04-18T16:31:38.408Z,18.41
2023-04-18T16:34:04.896Z,18.39
2023-04-18T16:36:34.271Z,18.36
2023-04-18T16:39:00.819Z,18.36
2023-04-18T16:41:27.286Z,18.34
2023-04-18T16:43:54.660Z,18.31
2023-04-18T16:46:21.117Z,18.34
2023-04-18T16:48:48.624Z,18.35
2023-04-18T16:51:15.829Z,18.32
2023-04-18T16:53:42.352Z,18.35
2023-04-18T16:56:09.023Z,18.30
2023-04-18T16:58:35.462Z,18.32
2023-04-18T17:01:02.309Z,18.38
2023-04-18T17:03:28.930Z,18.35
2023-04-18T17:05:55.900Z,18.35
2023-04-18T17:08:22.347Z,18.34
2023-04-18T17:10:51.981Z,18.32
2023-04-18T17:13:18.537Z,18.32
2023-04-18T17:15:45.073Z,18.32
2023-04-18T17:18:11.890Z,18.32
2023-04-18T17:20:38.486Z,18.33
2023-04-18T17:23:04.924Z,18.34
2023-04-18T17:25:31.870Z,18.34
2023-04-18T17:27:58.646Z,18.34
2023-04-18T17:30:25.152Z,18.32
2023-04-18T17:32:51.654Z,18.32
2023-04-18T17:35:18.242Z,18.30
2023-04-18T17:37:44.679Z,18.25
2023-04-18T17:40:11.948Z,18.23
2023-04-18T17:42:38.769Z,18.27
2023-04-18T17:45:07.567Z,18.34
2023-04-18T17:47:34.917Z,18.31
2023-04-18T17:50:01.417Z,18.30
2023-04-18T17:52:31.199Z,18.29
2023-04-18T17:55:04.165Z,18.27
2023-04-18T17:57:32.945Z,18.27
2023-04-18T17:59:59.336Z,18.23
2023-04-18T18:02:28.075Z,18.22
2023-04-18T18:04:54.679Z,18.21
2023-04-18T18:07:21.253Z,18.21
2023-04-18T18:09:47.756Z,18.21
2023-04-18T18:12:14.218Z,18.20
2023-04-18T18:14:40.631Z,18.26
2023-04-18T18:17:07.265Z,18.27
2023-04-18T18:19:36.659Z,18.25
2023-04-18T18:22:03.154Z,18.26
2023-04-18T18:24:29.887Z,18.23
2023-04-18T18:26:56.850Z,18.21
2023-04-18T18:29:23.488Z,18.07
2023-04-18T18:31:50.137Z,18.03
2023-04-18T18:34:16.965Z,18.11
2023-04-18T18:36:43.430Z,18.14
2023-04-18T18:39:11.149Z,18.17
2023-04-18T18:41:37.679Z,18.17
2023-04-18T18:44:04.235Z,18.16
2023-04-18T18:46:31.039Z,18.20
2023-04-18T18:48:57.651Z,18.29
2023-04-18T18:51:24.123Z,18.36
2023-04-18T18:53:50.552Z,18.46
2023-04-18T18:56:17.044Z,18.56
2023-04-18T18:58:43.858Z,18.64
2023-04-18T19:01:11.540Z,18.68
2023-04-18T19:03:38.208Z,18.74
2023-04-18T19:06:07.033Z,18.83
2023-04-18T19:08:33.850Z,18.91
2023-04-18T19:11:00.336Z,18.98
2023-04-18T19:13:26.820Z,19.04
2023-04-18T19:15:53.365Z,19.09
2023-04-18T19:18:20.272Z,19.15
2023-04-18T19:20:47.077Z,19.20
2023-04-18T19:23:13.568Z,19.25
2023-04-18T19:25:40.075Z,19.29
2023-04-18T19:28:06.767Z,19.33
2023-04-18T19:30:33.323Z,19.38
2023-04-18T19:33:00.016Z,19.41
2023-04-18T19:35:26.496Z,19.46
2023-04-18T19:37:55.831Z,19.49
2023-04-18T19:40:23.717Z,19.51
2023-04-18T19:42:50.177Z,19.54
2023-04-18T19:45:16.648Z,19.57
2023-04-18T19:47:44.336Z,19.60
2023-04-18T19:50:11.523Z,19.61
2023-04-18T19:52:37.968Z,19.60
2023-04-18T19:55:05.073Z,19.58
2023-04-18T19:57:31.726Z,19.58
2023-04-18T19:59:58.138Z,19.54
2023-04-18T20:02:24.706Z,19.50
2023-04-18T20:04:51.480Z,19.49
2023-04-18T20:07:18.058Z,19.45
2023-04-18T20:09:44.529Z,19.43
2023-04-18T20:12:10.951Z,19.39
2023-04-18T20:14:37.414Z,19.38
2023-04-18T20:17:03.835Z,19.35
2023-04-18T20:19:30.279Z,19.35
2023-04-18T20:21:56.965Z,19.31
2023-04-18T20:24:23.836Z,19.33
2023-04-18T20:26:51.400Z,19.27
2023-04-18T20:29:17.817Z,19.22
2023-04-18T20:31:44.277Z,19.24
2023-04-18T20:34:10.997Z,19.26
2023-04-18T20:36:41.492Z,19.26
2023-04-18T20:39:12.293Z,19.26
2023-04-18T20:41:46.599Z,19.25
2023-04-18T20:44:13.798Z,19.22
2023-04-18T20:46:41.222Z,19.18
2023-04-18T20:49:08.766Z,19.22
2023-04-18T20:51:37.052Z,19.20
2023-04-18T20:54:04.374Z,19.21
2023-04-18T20:56:31.958Z,19.20
2023-04-18T20:58:58.374Z,19.19
2023-04-18T21:01:25.100Z,19.20
2023-04-18T21:03:51.729Z,19.18
2023-04-18T21:06:19.181Z,19.18
2023-04-18T21:08:45.819Z,19.18
2023-04-18T21:11:12.280Z,19.18
2023-04-18T21:13:38.738Z,19.16
2023-04-18T21:16:07.988Z,19.17
2023-04-18T21:18:34.480Z,19.11
2023-04-18T21:21:00.957Z,19.13
2023-04-18T21:23:27.399Z,19.14
2023-04-18T21:25:53.898Z,19.13
2023-04-18T21:28:20.550Z,19.13
2023-04-18T21:30:47.131Z,19.11
2023-04-18T21:33:13.974Z,19.11
2023-04-18T21:35:40.450Z,19.12
2023-04-18T21:38:06.925Z,19.13
2023-04-18T21:40:33.397Z,19.10
2023-04-18T21:42:59.854Z,19.08
2023-04-18T21:45:26.441Z,19.08
2023-04-18T21:47:53.012Z,19.08
2023-04-18T21:50:19.735Z,19.07
2023-04-18T21:52:46.158Z,19.07
2023-04-18T21:55:12.641Z,19.05
2023-04-18T21:57:39.068Z,19.08
2023-04-18T22:00:08.452Z,19.07
2023-04-18T22:02:36.609Z,19.06
2023-04-18T22:05:03.246Z,19.05
2023-04-18T22:07:31.028Z,19.08
2023-04-18T22:09:59.684Z,19.05
2023-04-18T22:12:26.464Z,19.08
2023-04-18T22:14:53.013Z,19.09
2023-04-18T22:17:20.937Z,19.08
2023-04-18T22:19:49.748Z,19.10
2023-04-18T22:22:16.500Z,19.09
2023-04-18T22:24:43.980Z,19.06
2023-04-18T22:27:11.465Z,19.06
2023-04-18T22:29:37.878Z,19.08
2023-04-18T22:32:04.461Z,19.08
2023-04-18T22:34:30.953Z,19.07
2023-04-18T22:36:57.368Z,19.08
2023-04-18T22:39:24.651Z,19.08
2023-04-18T22:41:51.114Z,19.08
2023-04-18T22:44:17.656Z,19.07
2023-04-18T22:46:44.722Z,19.09
2023-04-18T22:49:11.333Z,19.10
2023-04-18T22:51:38.194Z,19.09
2023-04-18T22:54:05.042Z,19.08
2023-04-18T22:56:31.530Z,19.07
2023-04-18T22:58:57.930Z,19.06
2023-04-18T23:01:24.534Z,19.07
2023-04-18T23:03:51.126Z,19.08
2023-04-18T23:06:17.617Z,19.08
2023-04-18T23:08:44.125Z,19.08
2023-04-18T23:11:11.196Z,19.07
2023-04-18T23:13:37.694Z,19.01
2023-04-18T23:16:04.469Z,19.07
2023-04-18T23:18:31.014Z,19.08
2023-04-18T23:20:57.454Z,19.06
2023-04-18T23:23:24.039Z,19.07
2023-04-18T23:25:50.439Z,19.11
2023-04-18T23:28:17.199Z,19.10
2023-04-18T23:30:43.812Z,19.10
2023-04-18T23:33:10.456Z,19.09
2023-04-18T23:35:36.981Z,19.10
2023-04-18T23:38:03.514Z,19.10
2023-04-18T23:40:30.205Z,19.07
2023-04-18T23:42:57.102Z,19.07
2023-04-18T23:45:24.572Z,19.09
2023-04-18T23:47:51.907Z,19.07
2023-04-18T23:50:18.365Z,19.08
2023-04-18T23:52:44.799Z,19.06
2023-04-18T23:55:11.298Z,19.09
2023-04-18T23:57:37.715Z,19.07
